createdAt,value
2022-09-05T00:01:55.143Z,96955.22
2022-09-05T00:04:43.434Z,96963.13
2022-09-05T00:07:58.426Z,96964.94
2022-09-05T00:10:12.453Z,96963.63
2022-09-05T00:12:40.332Z,96967.34
2022-09-05T00:15:26.312Z,96966.53
2022-09-05T00:18:44.086Z,96964.66
2022-09-05T00:24:27.645Z,96962.00
2022-09-05T00:24:34.104Z,96966.25
2022-09-05T00:27:07.382Z,96959.66
2022-09-05T00:31:07.045Z,96959.66
2022-09-05T00:33:26.364Z,96963.06
2022-09-05T00:36:23.212Z,96955.91
2022-09-05T00:39:00.742Z,96961.47
2022-09-05T00:41:28.972Z,96965.41
2022-09-05T00:44:03.040Z,96958.53
2022-09-05T00:46:34.353Z,96958.75
2022-09-05T00:49:22.612Z,96954.53
2022-09-05T00:51:58.372Z,96956.13
2022-09-05T00:55:02.581Z,96951.38
2022-09-05T00:58:05.853Z,96951.09
2022-09-05T01:00:53.074Z,96954.78
2022-09-05T01:03:26.377Z,96947.13
2022-09-05T01:06:14.053Z,96948.44
2022-09-05T01:08:56.374Z,96946.59
2022-09-05T01:11:56.492Z,96952.38
2022-09-05T01:14:48.973Z,96951.88
2022-09-05T01:18:02.394Z,96947.94
2022-09-05T01:20:44.693Z,96941.31
2022-09-05T01:23:23.853Z,96953.78
2022-09-05T01:26:02.761Z,96956.94
2022-09-05T01:29:15.589Z,96955.38
2022-09-05T01:31:57.254Z,96958.78
2022-09-05T01:34:43.316Z,96956.97
2022-09-05T01:37:37.693Z,96956.13
2022-09-05T01:40:24.287Z,96959.03
2022-09-05T01:42:54.314Z,96956.91
2022-09-05T01:45:38.708Z,96959.56
2022-09-05T01:48:30.540Z,96963.50
2022-09-05T01:51:28.285Z,96967.47
2022-09-05T01:54:23.675Z,96964.00
2022-09-05T01:57:03.072Z,96968.00
2022-09-05T01:59:48.893Z,96971.69
2022-09-05T02:02:50.699Z,96967.44
2022-09-05T02:05:52.415Z,96978.25
2022-09-05T02:08:41.818Z,96975.59
2022-09-05T02:11:12.996Z,96968.47
2022-09-05T02:13:50.413Z,96967.44
2022-09-05T02:16:42.375Z,96965.81
2022-09-05T02:19:09.476Z,96967.94
2022-09-05T02:21:56.115Z,96959.44
2022-09-05T02:24:27.736Z,96963.19
2022-09-05T02:26:54.672Z,96963.19
2022-09-05T02:29:31.233Z,96963.69
2022-09-05T02:32:15.472Z,96963.41
2022-09-05T02:35:03.581Z,96958.13
2022-09-05T02:39:07.522Z,96953.09
2022-09-05T02:45:08.797Z,96952.25
2022-09-05T02:45:18.878Z,96950.91
2022-09-05T02:47:26.533Z,96951.94
2022-09-05T02:53:35.105Z,96939.78
2022-09-05T02:57:32.962Z,96945.06
2022-09-05T02:57:35.754Z,96940.81
2022-09-05T02:59:16.153Z,96939.22
2022-09-05T03:02:27.121Z,96944.81
2022-09-05T03:05:18.594Z,96940.88
2022-09-05T03:08:10.835Z,96946.69
2022-09-05T03:11:02.913Z,96949.34
2022-09-05T03:14:18.698Z,96948.84
2022-09-05T03:17:24.075Z,96947.50
2022-09-05T03:20:12.214Z,96944.00
2022-09-05T03:23:11.776Z,96937.44
2022-09-05T03:26:05.852Z,96949.59
2022-09-05T03:29:30.232Z,96945.34
2022-09-05T03:32:31.692Z,96944.56
2022-09-05T03:35:20.321Z,96943.50
2022-09-05T03:38:08.841Z,96937.63
2022-09-05T03:40:50.453Z,96934.19
2022-09-05T03:43:46.001Z,96933.91
2022-09-05T03:46:54.053Z,96934.97
2022-09-05T03:52:59.694Z,96938.41
2022-09-05T03:57:11.362Z,96938.31
2022-09-05T03:57:13.504Z,96937.03
2022-09-05T03:59:26.613Z,96932.75
2022-09-05T04:05:41.939Z,96927.75
2022-09-05T04:08:18.930Z,96932.69
2022-09-05T04:08:34.328Z,96928.69
2022-09-05T04:11:05.847Z,96924.19
2022-09-05T04:13:45.869Z,96924.69
2022-09-05T04:16:22.560Z,96928.38
2022-09-05T04:18:55.150Z,96920.47
2022-09-05T04:21:32.728Z,96920.44
2022-09-05T04:24:07.779Z,96923.63
2022-09-05T04:27:27.712Z,96921.00
2022-09-05T04:30:38.845Z,96927.53
2022-09-05T04:33:33.511Z,96931.50
2022-09-05T04:36:17.878Z,96935.72
2022-09-05T04:38:46.245Z,96941.00
2022-09-05T04:41:18.051Z,96941.28
2022-09-05T04:43:53.409Z,96933.66
2022-09-05T04:46:29.930Z,96934.72
2022-09-05T04:48:56.858Z,96939.25
2022-09-05T04:52:00.158Z,96939.81
2022-09-05T04:55:01.350Z,96952.72
2022-09-05T04:57:50.742Z,96961.53
2022-09-05T05:06:05.242Z,96965.22
2022-09-05T05:06:08.720Z,96963.41
2022-09-05T05:06:45.387Z,96971.88
2022-09-05T05:09:22.115Z,96960.50
2022-09-05T05:17:53.719Z,96962.44
2022-09-05T05:18:10.385Z,96963.25
2022-09-05T05:18:39.606Z,96967.84
2022-09-05T05:20:55.901Z,96969.75
2022-09-05T05:23:34.580Z,96976.41
2022-09-05T05:26:04.491Z,96977.75
2022-09-05T05:29:00.801Z,96983.31
2022-09-05T05:31:31.851Z,96987.56
2022-09-05T05:34:06.138Z,96987.63
2022-09-05T05:37:08.934Z,96988.69
2022-09-05T05:39:44.706Z,96988.97
2022-09-05T05:42:21.515Z,96982.63
2022-09-05T05:44:58.022Z,96993.25
2022-09-05T05:47:34.804Z,96984.03
2022-09-05T05:50:11.771Z,96985.38
2022-09-05T05:53:33.449Z,96990.97
2022-09-05T05:56:44.045Z,96989.91
2022-09-05T05:59:25.053Z,96992.84
2022-09-05T06:02:29.695Z,96998.69
2022-09-05T06:05:18.105Z,97001.84
2022-09-05T06:09:57.513Z,96997.38
2022-09-05T06:14:56.533Z,96996.03
2022-09-05T06:14:57.886Z,96993.09
2022-09-05T06:17:28.030Z,96993.34
2022-09-05T06:22:06.275Z,96991.22
2022-09-05T06:23:39.517Z,96985.38
2022-09-05T06:26:22.297Z,96986.19
2022-09-05T06:29:10.625Z,96986.16
2022-09-05T06:31:59.102Z,96981.41
2022-09-05T06:35:04.506Z,96985.59
2022-09-05T06:37:53.218Z,96989.56
2022-09-05T06:40:23.152Z,96991.38
2022-09-05T06:42:58.959Z,96990.81
2022-09-05T06:45:58.502Z,96990.78
2022-09-05T06:49:30.643Z,96984.88
2022-09-05T06:52:13.090Z,96989.88
2022-09-05T06:55:06.475Z,96985.56
2022-09-05T06:58:18.256Z,96988.97
2022-09-05T07:00:50.977Z,96994.81
2022-09-05T07:03:26.888Z,96992.59
2022-09-05T07:05:56.845Z,96992.56
2022-09-05T07:08:44.634Z,96991.97
2022-09-05T07:11:36.856Z,96994.34
2022-09-05T07:14:14.169Z,96988.66
2022-09-05T07:16:44.431Z,96989.41
2022-09-05T07:19:27.710Z,96994.16
2022-09-05T07:22:47.860Z,96999.69
2022-09-05T07:25:37.218Z,96993.78
2022-09-05T07:28:27.032Z,97003.25
2022-09-05T07:31:03.173Z,97008.25
2022-09-05T07:33:31.733Z,97009.19
2022-09-05T07:36:10.165Z,96999.25
2022-09-05T07:38:54.905Z,96997.34
2022-09-05T07:41:28.595Z,97008.94
2022-09-05T07:44:03.384Z,97006.81
2022-09-05T07:46:39.044Z,97005.66
2022-09-05T07:49:11.346Z,97007.75
2022-09-05T07:56:52.289Z,97015.09
2022-09-05T07:56:56.046Z,97004.28
2022-09-05T07:57:50.900Z,97011.41
2022-09-05T08:00:26.786Z,97014.16
2022-09-05T08:02:59.536Z,97013.91
2022-09-05T08:05:37.526Z,97010.88
2022-09-05T08:08:10.377Z,97021.13
2022-09-05T08:11:22.018Z,97017.81
2022-09-05T08:13:46.223Z,97019.03
2022-09-05T08:16:19.466Z,97017.25
2022-09-05T08:19:01.726Z,97016.34
2022-09-05T08:21:43.945Z,97023.41
2022-09-05T08:24:25.448Z,97018.59
2022-09-05T08:27:31.516Z,97014.59
2022-09-05T08:30:24.640Z,97009.63
2022-09-05T08:33:11.058Z,97004.88
2022-09-05T08:35:45.785Z,97008.88
2022-09-05T08:38:15.728Z,97009.97
2022-09-05T08:40:53.184Z,97000.31
2022-09-05T08:46:35.828Z,96999.06
2022-09-05T08:46:53.323Z,97000.47
2022-09-05T08:49:49.624Z,97002.06
2022-09-05T08:52:40.613Z,97009.28
2022-09-05T08:55:25.794Z,97005.03
2022-09-05T08:58:21.305Z,97005.63
2022-09-05T09:01:06.823Z,96996.63
2022-09-05T09:04:39.977Z,96996.78
2022-09-05T09:07:50.893Z,96997.25
2022-09-05T09:10:39.514Z,96986.31
2022-09-05T09:13:28.055Z,96982.59
2022-09-05T09:16:06.759Z,96976.63
2022-09-05T09:18:53.824Z,96971.50
2022-09-05T09:21:31.915Z,96974.09
2022-09-05T09:24:07.632Z,96982.56
2022-09-05T09:26:43.002Z,96974.78
2022-09-05T09:29:12.666Z,96978.53
2022-09-05T09:31:56.635Z,96972.00
2022-09-05T09:34:26.557Z,96981.81
2022-09-05T09:37:08.805Z,96979.50
2022-09-05T09:40:14.433Z,96984.56
2022-09-05T09:43:07.306Z,96988.63
2022-09-05T09:45:59.114Z,96983.72
2022-09-05T09:49:03.745Z,96984.81
2022-09-05T09:51:51.814Z,96977.06
2022-09-05T09:54:49.805Z,96974.69
2022-09-05T09:57:51.545Z,96980.91
2022-09-05T10:00:21.644Z,96975.56
2022-09-05T10:10:36.375Z,96977.47
2022-09-05T10:10:36.454Z,96981.72
2022-09-05T10:10:43.853Z,96985.50
2022-09-05T10:12:31.998Z,96979.53
2022-09-05T10:15:18.595Z,96979.72
2022-09-05T10:18:10.687Z,96969.03
2022-09-05T10:21:16.240Z,96974.72
2022-09-05T10:24:20.848Z,96964.44
2022-09-05T10:27:26.706Z,96967.16
2022-09-05T10:30:08.153Z,96973.31
2022-09-05T10:35:11.772Z,96961.81
2022-09-05T10:35:40.870Z,96963.22
2022-09-05T10:38:21.603Z,96957.63
2022-09-05T10:41:19.798Z,96957.59
2022-09-05T10:44:04.707Z,96949.75
2022-09-05T10:47:10.308Z,96945.41
2022-09-05T10:49:44.710Z,96943.59
2022-09-05T10:52:18.655Z,96943.28
2022-09-05T10:55:15.602Z,96936.56
2022-09-05T10:57:54.616Z,96933.44
2022-09-05T11:02:28.887Z,96931.88
2022-09-05T11:13:26.894Z,96935.22
2022-09-05T11:16:04.561Z,96942.31
2022-09-05T11:18:56.435Z,96935.38
2022-09-05T11:21:30.706Z,96930.81
2022-09-05T11:24:44.978Z,96940.88
2022-09-05T11:27:36.305Z,96943.56
2022-09-05T11:30:41.194Z,96939.63
2022-09-05T11:37:54.663Z,96949.59
2022-09-05T11:40:02.008Z,96934.28
2022-09-05T11:40:09.969Z,96950.06
2022-09-05T11:42:42.084Z,96939.78
2022-09-05T11:45:08.925Z,96934.59
2022-09-05T11:47:54.245Z,96933.94
2022-09-05T11:50:58.774Z,96935.06
2022-09-05T11:53:46.794Z,96931.31
2022-09-05T11:56:39.692Z,96928.50
2022-09-05T11:59:32.763Z,96930.50
2022-09-05T12:02:24.095Z,96928.34
2022-09-05T12:05:48.701Z,96923.59
2022-09-05T12:08:21.422Z,96918.25
2022-09-05T12:11:31.644Z,96912.44
2022-09-05T12:14:39.525Z,96911.94
2022-09-05T12:17:17.208Z,96911.66
2022-09-05T12:20:16.971Z,96907.75
2022-09-05T12:22:54.090Z,96909.63
2022-09-05T12:29:26.428Z,96908.09
2022-09-05T12:32:41.777Z,96900.50
2022-09-05T12:36:10.694Z,96900.84
2022-09-05T12:40:56.977Z,96895.59
2022-09-05T12:41:38.837Z,96892.88
2022-09-05T12:42:08.417Z,96906.50
2022-09-05T12:43:53.095Z,96889.63
2022-09-05T12:46:27.685Z,96879.34
2022-09-05T12:49:07.523Z,96887.88
2022-09-05T12:51:46.992Z,96881.88
2022-09-05T12:54:34.700Z,96883.13
2022-09-05T12:59:34.827Z,96885.34
2022-09-05T13:03:06.706Z,96882.50
2022-09-05T13:03:28.361Z,96873.50
2022-09-05T13:06:25.181Z,96878.88
2022-09-05T13:09:00.996Z,96872.56
2022-09-05T13:14:49.267Z,96871.63
2022-09-05T13:14:53.961Z,96877.59
2022-09-05T13:17:14.215Z,96872.88
2022-09-05T13:19:47.657Z,96870.19
2022-09-05T13:22:16.584Z,96869.41
2022-09-05T13:24:50.725Z,96871.00
2022-09-05T13:27:25.965Z,96859.97
2022-09-05T13:30:54.842Z,96861.84
2022-09-05T13:38:01.419Z,96861.84
2022-09-05T13:38:20.787Z,96862.16
2022-09-05T13:38:56.066Z,96857.59
2022-09-05T13:41:30.777Z,96858.84
2022-09-05T13:44:27.546Z,96853.00
2022-09-05T13:47:29.768Z,96844.81
2022-09-05T13:50:27.866Z,96847.34
2022-09-05T13:53:00.805Z,96854.59
2022-09-05T13:55:38.232Z,96848.44
2022-09-05T13:58:16.986Z,96836.44
2022-09-05T14:00:59.596Z,96844.34
2022-09-05T14:03:46.771Z,96834.72
2022-09-05T14:06:47.168Z,96834.25
2022-09-05T14:09:38.951Z,96830.00
2022-09-05T14:12:29.717Z,96824.91
2022-09-05T14:15:13.475Z,96834.34
2022-09-05T14:18:21.138Z,96825.81
2022-09-05T14:21:16.435Z,96819.66
2022-09-05T14:23:56.281Z,96815.88
2022-09-05T14:26:47.455Z,96812.88
2022-09-05T14:29:21.164Z,96814.16
2022-09-05T14:37:50.191Z,96804.72
2022-09-05T14:37:55.378Z,96818.72
2022-09-05T14:38:14.475Z,96805.69
2022-09-05T14:41:19.634Z,96814.81
2022-09-05T14:43:58.685Z,96806.25
2022-09-05T14:46:41.638Z,96803.22
2022-09-05T14:49:18.298Z,96789.81
2022-09-05T14:51:51.035Z,96800.75
2022-09-05T15:02:43.607Z,96793.22
2022-09-05T15:02:46.250Z,96792.81
2022-09-05T15:03:03.847Z,96790.88
2022-09-05T15:05:31.815Z,96798.19
2022-09-05T15:08:08.365Z,96786.47
2022-09-05T15:12:24.352Z,96790.13
2022-09-05T15:14:04.155Z,96793.06
2022-09-05T15:16:35.803Z,96783.22
2022-09-05T15:19:03.246Z,96780.72
2022-09-05T15:21:38.427Z,96782.25
2022-09-05T15:24:25.074Z,96776.19
2022-09-05T15:26:53.145Z,96773.91
2022-09-05T15:29:29.274Z,96774.94
2022-09-05T15:32:14.867Z,96772.25
2022-09-05T15:34:41.858Z,96762.56
2022-09-05T15:37:22.835Z,96767.59
2022-09-05T15:40:07.618Z,96766.25
2022-09-05T15:42:55.325Z,96769.19
2022-09-05T15:45:36.405Z,96762.31
2022-09-05T15:48:12.575Z,96770.47
2022-09-05T15:50:46.244Z,96769.66
2022-09-05T15:53:24.849Z,96771.13
2022-09-05T15:55:59.868Z,96766.81
2022-09-05T15:58:32.790Z,96767.03
2022-09-05T16:01:49.881Z,96769.47
2022-09-05T16:10:26.772Z,96768.50
2022-09-05T16:10:40.814Z,96770.47
2022-09-05T16:10:42.751Z,96767.31
2022-09-05T16:12:42.671Z,96764.81
2022-09-05T16:16:28.496Z,96761.97
2022-09-05T16:23:21.114Z,96759.81
2022-09-05T16:23:32.903Z,96750.25
2022-09-05T16:24:04.864Z,96754.50
2022-09-05T16:26:40.297Z,96758.63
2022-09-05T16:29:13.444Z,96762.09
2022-09-05T16:31:51.331Z,96759.41
2022-09-05T16:34:31.236Z,96761.13
2022-09-05T16:37:08.891Z,96757.47
2022-09-05T16:39:42.882Z,96758.88
2022-09-05T16:42:47.909Z,96758.72
2022-09-05T16:45:33.093Z,96759.16
2022-09-05T16:48:12.050Z,96764.31
2022-09-05T16:51:00.234Z,96763.69
2022-09-05T16:53:58.589Z,96768.41
2022-09-05T16:56:30.253Z,96761.91
2022-09-05T16:59:17.473Z,96755.63
2022-09-05T17:02:07.247Z,96762.03
2022-09-05T17:05:05.974Z,96757.44
2022-09-05T17:07:42.056Z,96764.31
2022-09-05T17:10:18.606Z,96770.09
2022-09-05T17:12:46.754Z,96765.50
2022-09-05T17:15:16.743Z,96760.59
2022-09-05T17:18:20.826Z,96765.28
2022-09-05T17:20:38.108Z,96768.09
2022-09-05T17:29:20.447Z,96763.19
2022-09-05T17:29:24.588Z,96771.94
2022-09-05T17:29:26.024Z,96765.97
2022-09-05T17:31:55.134Z,96768.13
2022-09-05T17:34:49.893Z,96766.97
2022-09-05T17:38:11.426Z,96776.97
2022-09-05T17:41:00.564Z,96767.31
2022-09-05T17:43:32.372Z,96771.50
2022-09-05T17:46:11.745Z,96767.38
2022-09-05T17:49:03.311Z,96768.38
2022-09-05T17:51:51.739Z,96760.78
2022-09-05T17:54:33.812Z,96759.63
2022-09-05T17:57:26.882Z,96758.75
2022-09-05T18:00:02.272Z,96769.06
2022-09-05T18:02:56.384Z,96772.09
2022-09-05T18:05:54.897Z,96766.38
2022-09-05T18:08:52.651Z,96776.66
2022-09-05T18:11:25.843Z,96775.19
2022-09-05T18:14:03.476Z,96789.72
2022-09-05T18:16:43.723Z,96786.66
2022-09-05T18:19:37.220Z,96797.13
2022-09-05T18:22:20.154Z,96790.59
2022-09-05T18:24:57.765Z,96790.72
2022-09-05T18:28:04.645Z,96782.53
2022-09-05T18:33:53.489Z,96794.75
2022-09-05T18:36:32.434Z,96793.75
2022-09-05T18:39:24.795Z,96795.69
2022-09-05T18:42:25.591Z,96790.94
2022-09-05T18:45:00.000Z,96795.59
2022-09-05T18:47:51.054Z,96802.28
2022-09-05T18:50:27.964Z,96803.44
2022-09-05T18:53:09.135Z,96806.78
2022-09-05T18:56:11.093Z,96801.75
2022-09-05T18:58:34.538Z,96806.00
2022-09-05T19:01:28.541Z,96801.16
2022-09-05T19:04:01.968Z,96806.59
2022-09-05T19:06:35.862Z,96801.75
2022-09-05T19:09:09.772Z,96800.66
2022-09-05T19:11:53.942Z,96794.34
2022-09-05T19:14:55.356Z,96807.16
2022-09-05T19:17:34.352Z,96801.50
2022-09-05T19:20:30.764Z,96797.69
2022-09-05T19:23:11.031Z,96796.09
2022-09-05T19:25:45.104Z,96797.44
2022-09-05T19:35:34.589Z,96799.31
2022-09-05T19:36:52.792Z,96796.66
2022-09-05T19:37:09.435Z,96795.88
2022-09-05T19:37:28.865Z,96802.31
2022-09-05T19:43:07.422Z,96792.91
2022-09-05T19:47:41.502Z,96796.88
2022-09-05T19:47:46.682Z,96789.19
2022-09-05T19:49:08.519Z,96793.72
2022-09-05T19:51:37.163Z,96785.72
2022-09-05T19:54:05.999Z,96788.59
2022-09-05T19:56:43.185Z,96784.34
2022-09-05T19:59:22.664Z,96783.56
2022-09-05T20:01:52.084Z,96780.91
2022-09-05T20:04:20.865Z,96782.25
2022-09-05T20:06:49.961Z,96783.44
2022-09-05T20:09:21.465Z,96779.97
2022-09-05T20:11:58.228Z,96781.06
2022-09-05T20:14:31.220Z,96775.53
2022-09-05T20:17:17.266Z,96774.75
2022-09-05T20:19:45.074Z,96773.94
2022-09-05T20:22:47.086Z,96776.91
2022-09-05T20:25:35.317Z,96774.22
2022-09-05T20:28:12.505Z,96777.19
2022-09-05T20:30:49.477Z,96770.50
2022-09-05T20:33:20.019Z,96772.38
2022-09-05T20:39:03.897Z,96773.16
2022-09-05T20:43:15.705Z,96767.53
2022-09-05T20:43:31.553Z,96769.69
2022-09-05T20:44:25.142Z,96769.69
2022-09-05T20:50:48.395Z,96767.03
2022-09-05T20:54:05.910Z,96759.56
2022-09-05T20:54:19.758Z,96763.59
2022-09-05T20:55:43.171Z,96758.84
2022-09-05T20:58:24.630Z,96764.94
2022-09-05T21:01:20.057Z,96765.47
2022-09-05T21:04:05.140Z,96758.06
2022-09-05T21:06:35.015Z,96767.31
2022-09-05T21:09:24.683Z,96769.28
2022-09-05T21:11:54.503Z,96770.16
2022-09-05T21:14:23.796Z,96774.69
2022-09-05T21:17:14.977Z,96767.00
2022-09-05T21:19:54.194Z,96776.06
2022-09-05T21:22:21.435Z,96767.00
2022-09-05T21:25:16.485Z,96766.28
2022-09-05T21:27:58.895Z,96769.44
2022-09-05T21:30:32.305Z,96770.81
2022-09-05T21:33:29.484Z,96768.41
2022-09-05T21:36:04.408Z,96770.56
2022-09-05T21:38:40.855Z,96763.53
2022-09-05T21:41:08.407Z,96765.09
2022-09-05T21:47:42.448Z,96764.38
2022-09-05T21:47:42.804Z,96769.44
2022-09-05T21:49:18.899Z,96762.25
2022-09-05T21:51:53.435Z,96761.97
2022-09-05T21:59:11.657Z,96766.97
2022-09-05T21:59:26.028Z,96756.91
2022-09-05T22:00:14.635Z,96761.16
2022-09-05T22:02:49.671Z,96754.75
2022-09-05T22:05:17.365Z,96760.38
2022-09-05T22:07:44.593Z,96755.34
2022-09-05T22:10:12.255Z,96754.63
2022-09-05T22:12:39.502Z,96758.63
2022-09-05T22:15:28.949Z,96753.59
2022-09-05T22:18:14.750Z,96748.88
2022-09-05T22:20:53.467Z,96751.81
2022-09-05T22:23:37.665Z,96755.84
2022-09-05T22:26:07.885Z,96761.47
2022-09-05T22:28:38.719Z,96757.78
2022-09-05T22:31:07.707Z,96754.31
2022-09-05T22:33:35.626Z,96755.19
2022-09-05T22:36:02.965Z,96750.94
2022-09-05T22:38:30.236Z,96748.38
2022-09-05T22:40:57.805Z,96745.19
2022-09-05T22:43:25.506Z,96743.63
2022-09-05T22:45:56.370Z,96754.00
2022-09-05T22:48:24.155Z,96745.03
2022-09-05T22:50:51.226Z,96733.69
2022-09-05T22:53:18.346Z,96737.97
2022-09-05T22:55:45.432Z,96731.44
2022-09-05T22:58:14.524Z,96732.06
2022-09-05T23:00:41.979Z,96734.75
2022-09-05T23:03:09.277Z,96723.59
2022-09-05T23:05:36.386Z,96733.47
2022-09-05T23:08:06.025Z,96728.72
2022-09-05T23:10:33.511Z,96731.66
2022-09-05T23:13:07.117Z,96723.97
2022-09-05T23:15:35.637Z,96724.28
2022-09-05T23:18:04.120Z,96717.38
2022-09-05T23:20:32.587Z,96718.72
2022-09-05T23:23:04.419Z,96720.56
2022-09-05T23:25:32.209Z,96708.16
2022-09-05T23:27:59.180Z,96708.19
2022-09-05T23:30:26.169Z,96715.69
2022-09-05T23:32:53.282Z,96707.97
2022-09-05T23:35:20.660Z,96706.47
2022-09-05T23:37:48.867Z,96710.00
2022-09-05T23:40:18.048Z,96712.41
2022-09-05T23:42:53.270Z,96716.41
2022-09-05T23:45:20.539Z,96713.25
2022-09-05T23:47:47.899Z,96715.66
2022-09-05T23:50:15.727Z,96717.06
2022-09-05T23:52:44.460Z,96701.41
2022-09-05T23:55:13.639Z,96716.06
2022-09-05T23:57:41.178Z,96709.72
